Black Butte Atmospheric Data: 04/08/2021 Summary  Detailed Graphs  Station List

  Temperature     Wind Precipitation Visibility
Timestamp Air Wet
Bulb
Dew-
point
24-hr
Max
24-hr
Min
Relative
Humidity
Atmospheric
Pressure
Avg
Speed
Avg
Dir
Spot
Speed
Spot
Dir
Max
Speed
Max
Dir
  Rate Situation Start End 1 hr 3 hr 6 hr 12 hr 24 hr   Situation
Date Time °F °F °F °F °F % in Hg mph ° mph ° mph ° Y/N in/hr text Date Time Date Time in in in in in mi text
04/08/2021 12:02 AM 37.76 34.16 28.94 68.36 37.58 69.0 Not Reported 0.67 N 2.01 E 2.91 SW No 0.000 No Precipitation 03/24/2021 09:44 PM 03/24/2021 09:54 PM 0.000 0.000 0.000 0.000 0.000 Not Reported Not Reported
04/08/2021 12:07 AM 38.66 34.16 27.14 68.36 37.58 62.0 Not Reported 0.45 NW 1.12 W 2.91 NE No 0.000 No Precipitation 03/24/2021 09:44 PM 03/24/2021 09:54 PM 0.000 0.000 0.000 0.000 0.000 Not Reported Not Reported
04/08/2021 12:12 AM 38.30 34.34 28.22 68.36 37.58 66.0 Not Reported 0.22 NW 3.80 NW 3.80 NW No 0.000 No Precipitation 03/24/2021 09:44 PM 03/24/2021 09:54 PM 0.000 0.000 0.000 0.000 0.000 Not Reported Not Reported
04/08/2021 12:17 AM 37.94 33.80 27.50 68.36 37.58 65.0 Not Reported 1.12 SW 0.45 W 3.80 NW No 0.000 No Precipitation 03/24/2021 09:44 PM 03/24/2021 09:54 PM 0.000 0.000 0.000 0.000 0.000 Not Reported Not Reported
04/08/2021 12:22 AM 37.58 33.62 27.50 68.36 37.58 66.0 Not Reported 0.00 N 3.13 N 3.13 N No 0.000 No Precipitation 03/24/2021 09:44 PM 03/24/2021 09:54 PM 0.000 0.000 0.000 0.000 0.000 Not Reported Not Reported
04/08/2021 12:27 AM 37.40 33.44 27.14 68.36 37.40 65.0 Not Reported 0.22 NW 1.34 NW 3.13 N No 0.000 No Precipitation 03/24/2021 09:44 PM 03/24/2021 09:54 PM 0.000 0.000 0.000 0.000 0.000 Not Reported Not Reported
04/08/2021 12:37 AM 37.58 33.44 26.78 68.36 37.04 64.0 Not Reported 2.46 NW 1.57 W 3.58 N No 0.000 No Precipitation 03/24/2021 09:44 PM 03/24/2021 09:54 PM 0.000 0.000 0.000 0.000 0.000 Not Reported Not Reported
04/08/2021 12:42 AM 37.04 33.08 26.60 68.36 37.04 65.0 Not Reported 0.67 S 1.79 S 3.58 N No 0.000 No Precipitation 03/24/2021 09:44 PM 03/24/2021 09:54 PM 0.000 0.000 0.000 0.000 0.000 Not Reported Not Reported
04/08/2021 12:52 AM 37.04 33.62 28.40 68.36 37.04 70.0 Not Reported 1.34 SW 0.00 E 2.68 SW No 0.000 No Precipitation 03/24/2021 09:44 PM 03/24/2021 09:54 PM 0.000 0.000 0.000 0.000 0.000 Not Reported Not Reported
04/08/2021 12:57 AM 37.22 33.26 27.14 68.36 37.04 65.0 Not Reported 1.12 N 0.67 NE 2.68 SW No 0.000 No Precipitation 03/24/2021 09:44 PM 03/24/2021 09:54 PM 0.000 0.000 0.000 0.000 0.000 Not Reported Not Reported
04/08/2021 01:02 AM 38.12 33.08 25.16 68.36 37.04 59.0 Not Reported 0.00 NE 0.22 N 1.79 E No 0.000 No Precipitation 03/24/2021 09:44 PM 03/24/2021 09:54 PM 0.000 0.000 0.000 0.000 0.000 Not Reported Not Reported
04/08/2021 01:07 AM 37.76 33.08 25.52 68.36 37.04 60.0 Not Reported 3.36 NW 3.13 NW 4.03 W No 0.000 No Precipitation 03/24/2021 09:44 PM 03/24/2021 09:54 PM 0.000 0.000 0.000 0.000 0.000 Not Reported Not Reported
04/08/2021 01:12 AM 37.94 32.90 24.26 68.36 37.04 57.0 Not Reported 3.13 NW 3.80 NW 4.03 NW No 0.000 No Precipitation 03/24/2021 09:44 PM 03/24/2021 09:54 PM 0.000 0.000 0.000 0.000 0.000 Not Reported Not Reported
04/08/2021 01:17 AM 37.94 32.90 24.80 68.36 37.04 58.0 Not Reported 1.79 NW 1.57 NW 4.03 NW No 0.000 No Precipitation 03/24/2021 09:44 PM 03/24/2021 09:54 PM 0.000 0.000 0.000 0.000 0.000 Not Reported Not Reported
04/08/2021 01:22 AM 36.68 32.36 25.34 68.36 36.68 62.0 Not Reported 2.24 N 3.58 N 4.03 W No 0.000 No Precipitation 03/24/2021 09:44 PM 03/24/2021 09:54 PM 0.000 0.000 0.000 0.000 0.000 Not Reported Not Reported
04/08/2021 01:32 AM 37.94 32.72 23.72 68.36 36.50 55.0 Not Reported 1.57 NW 2.46 W 3.13 NW No 0.000 No Precipitation 03/24/2021 09:44 PM 03/24/2021 09:54 PM 0.000 0.000 0.000 0.000 0.000 Not Reported Not Reported
04/08/2021 01:37 AM 37.40 32.54 24.26 68.36 36.50 58.0 Not Reported 3.58 NW 4.03 NW 4.03 NW No 0.000 No Precipitation 03/24/2021 09:44 PM 03/24/2021 09:54 PM 0.000 0.000 0.000 0.000 0.000 Not Reported Not Reported
04/08/2021 01:42 AM 37.22 32.36 24.44 68.36 36.50 59.0 Not Reported 0.67 NW 0.67 NW 4.03 NW No 0.000 No Precipitation 03/24/2021 09:44 PM 03/24/2021 09:54 PM 0.000 0.000 0.000 0.000 0.000 Not Reported Not Reported
04/08/2021 01:47 AM 36.50 32.00 24.26 68.36 36.50 60.0 Not Reported 1.79 NW 1.12 W 2.91 NW No 0.000 No Precipitation 03/24/2021 09:44 PM 03/24/2021 09:54 PM 0.000 0.000 0.000 0.000 0.000 Not Reported Not Reported
04/08/2021 01:52 AM 36.68 32.36 25.16 68.36 36.50 62.0 Not Reported 0.67 SW 0.00 S 2.68 NW No 0.000 No Precipitation 03/24/2021 09:44 PM 03/24/2021 09:54 PM 0.000 0.000 0.000 0.000 0.000 Not Reported Not Reported
04/08/2021 01:57 AM 35.42 31.64 24.80 68.36 35.42 64.0 Not Reported 1.57 NW 2.24 NW 2.24 NW No 0.000 No Precipitation 03/24/2021 09:44 PM 03/24/2021 09:54 PM 0.000 0.000 0.000 0.000 0.000 Not Reported Not Reported
04/08/2021 02:02 AM 34.70 31.10 24.80 68.36 34.70 66.0 Not Reported 1.79 W 2.01 NW 2.24 N No 0.000 No Precipitation 03/24/2021 09:44 PM 03/24/2021 09:54 PM 0.000 0.000 0.000 0.000 0.000 Not Reported Not Reported
04/08/2021 02:07 AM 34.52 31.10 24.62 68.36 34.52 66.0 Not Reported 3.36 NW 4.03 NW 4.03 NW No 0.000 No Precipitation 03/24/2021 09:44 PM 03/24/2021 09:54 PM 0.000 0.000 0.000 0.000 0.000 Not Reported Not Reported
04/08/2021 02:12 AM 34.34 30.92 24.62 68.36 34.34 66.0 Not Reported 4.03 NW 4.47 NW 4.92 NW No 0.000 No Precipitation 03/24/2021 09:44 PM 03/24/2021 09:54 PM 0.000 0.000 0.000 0.000 0.000 Not Reported Not Reported
04/08/2021 02:17 AM 34.34 30.92 24.62 68.36 34.16 66.0 Not Reported 1.12 W 0.22 W 4.92 NW No 0.000 No Precipitation 03/24/2021 09:44 PM 03/24/2021 09:54 PM 0.000 0.000 0.000 0.000 0.000 Not Reported Not Reported
04/08/2021 02:22 AM 34.34 30.74 24.44 68.36 33.98 66.0 Not Reported 2.24 NW 2.24 NW 3.36 W No 0.000 No Precipitation 03/24/2021 09:44 PM 03/24/2021 09:54 PM 0.000 0.000 0.000 0.000 0.000 Not Reported Not Reported
04/08/2021 02:27 AM 36.68 31.82 23.18 68.36 33.98 57.0 Not Reported 2.91 NW 3.36 NW 3.36 W No 0.000 No Precipitation 03/24/2021 09:44 PM 03/24/2021 09:54 PM 0.000 0.000 0.000 0.000 0.000 Not Reported Not Reported
04/08/2021 02:32 AM 37.04 32.00 23.00 68.36 33.98 56.0 Not Reported 2.24 W 1.79 NW 3.58 NW No 0.000 No Precipitation 03/24/2021 09:44 PM 03/24/2021 09:54 PM 0.000 0.000 0.000 0.000 0.000 Not Reported Not Reported
04/08/2021 02:37 AM 35.96 31.82 23.90 68.36 33.98 60.0 Not Reported 1.57 NW 2.01 W 3.58 NW No 0.000 No Precipitation 03/24/2021 09:44 PM 03/24/2021 09:54 PM 0.000 0.000 0.000 0.000 0.000 Not Reported Not Reported
04/08/2021 02:42 AM 36.14 31.64 23.18 68.36 33.98 58.0 Not Reported 1.57 NW 1.79 SW 3.58 W No 0.000 No Precipitation 03/24/2021 09:44 PM 03/24/2021 09:54 PM 0.000 0.000 0.000 0.000 0.000 Not Reported Not Reported
04/08/2021 02:47 AM 36.32 31.64 23.18 68.36 33.98 58.0 Not Reported 2.24 NW 2.01 NW 3.58 W No 0.000 No Precipitation 03/24/2021 09:44 PM 03/24/2021 09:54 PM 0.000 0.000 0.000 0.000 0.000 Not Reported Not Reported
04/08/2021 02:52 AM 34.16 30.38 23.36 68.36 33.98 63.0 Not Reported 2.46 NW 4.70 NW 5.59 NW No 0.000 No Precipitation 03/24/2021 09:44 PM 03/24/2021 09:54 PM 0.000 0.000 0.000 0.000 0.000 Not Reported Not Reported
04/08/2021 02:57 AM 34.52 30.56 23.36 68.36 33.98 63.0 Not Reported 1.57 N 0.22 NW 5.59 NW No 0.000 No Precipitation 03/24/2021 09:44 PM 03/24/2021 09:54 PM 0.000 0.000 0.000 0.000 0.000 Not Reported Not Reported
04/08/2021 03:02 AM 34.16 30.56 23.54 68.36 33.98 64.0 Not Reported 2.24 NW 2.01 N 4.92 NW No 0.000 No Precipitation 03/24/2021 09:44 PM 03/24/2021 09:54 PM 0.000 0.000 0.000 0.000 0.000 Not Reported Not Reported
04/08/2021 03:07 AM 37.22 32.18 23.72 68.36 33.98 57.0 Not Reported 7.16 W 7.61 SW 8.50 W No 0.000 No Precipitation 03/24/2021 09:44 PM 03/24/2021 09:54 PM 0.000 0.000 0.000 0.000 0.000 Not Reported Not Reported
04/08/2021 03:12 AM 36.50 32.18 24.62 68.36 33.98 61.0 Not Reported 6.26 W 6.26 W 8.50 W No 0.000 No Precipitation 03/24/2021 09:44 PM 03/24/2021 09:54 PM 0.000 0.000 0.000 0.000 0.000 Not Reported Not Reported
04/08/2021 03:17 AM 37.76 32.72 24.08 68.36 33.98 57.0 Not Reported 7.83 W 7.61 W 9.62 W No 0.000 No Precipitation 03/24/2021 09:44 PM 03/24/2021 09:54 PM 0.000 0.000 0.000 0.000 0.000 Not Reported Not Reported
04/08/2021 03:22 AM 37.40 32.36 23.72 68.36 33.98 57.0 Not Reported 6.71 W 7.38 W 9.84 W No 0.000 No Precipitation 03/24/2021 09:44 PM 03/24/2021 09:54 PM 0.000 0.000 0.000 0.000 0.000 Not Reported Not Reported
04/08/2021 03:27 AM 36.68 32.00 23.90 68.36 33.98 59.0 Not Reported 6.93 W 5.59 W 9.84 W No 0.000 No Precipitation 03/24/2021 09:44 PM 03/24/2021 09:54 PM 0.000 0.000 0.000 0.000 0.000 Not Reported Not Reported
04/08/2021 03:32 AM 37.40 32.36 23.54 68.36 33.98 56.0 Not Reported 8.05 W 5.59 W 10.29 W No 0.000 No Precipitation 03/24/2021 09:44 PM 03/24/2021 09:54 PM 0.000 0.000 0.000 0.000 0.000 Not Reported Not Reported
04/08/2021 03:37 AM 38.30 32.36 22.10 68.36 33.98 51.0 Not Reported 8.28 W 9.40 W 10.29 W No 0.000 No Precipitation 03/24/2021 09:44 PM 03/24/2021 09:54 PM 0.000 0.000 0.000 0.000 0.000 Not Reported Not Reported
04/08/2021 03:42 AM 39.02 32.90 21.92 68.36 33.98 49.0 Not Reported 9.17 W 7.83 W 11.18 NW No 0.000 No Precipitation 03/24/2021 09:44 PM 03/24/2021 09:54 PM 0.000 0.000 0.000 0.000 0.000 Not Reported Not Reported
04/08/2021 03:47 AM 39.20 32.72 21.38 68.36 33.98 47.0 Not Reported 9.84 NW 11.18 NW 11.18 NW No 0.000 No Precipitation 03/24/2021 09:44 PM 03/24/2021 09:54 PM 0.000 0.000 0.000 0.000 0.000 Not Reported Not Reported
04/08/2021 03:52 AM 39.20 32.72 21.20 68.36 33.98 47.0 Not Reported 10.07 NW 10.74 NW 15.21 NW No 0.000 No Precipitation 03/24/2021 09:44 PM 03/24/2021 09:54 PM 0.000 0.000 0.000 0.000 0.000 Not Reported Not Reported
04/08/2021 03:57 AM 39.02 32.54 21.02 68.36 33.98 47.0 Not Reported 8.72 W 8.05 NW 15.21 NW No 0.000 No Precipitation 03/24/2021 09:44 PM 03/24/2021 09:54 PM 0.000 0.000 0.000 0.000 0.000 Not Reported Not Reported
04/08/2021 04:02 AM 38.84 32.54 21.20 68.36 33.98 48.0 Not Reported 8.95 W 9.17 NW 10.29 NW No 0.000 No Precipitation 03/24/2021 09:44 PM 03/24/2021 09:54 PM 0.000 0.000 0.000 0.000 0.000 Not Reported Not Reported
04/08/2021 04:07 AM 37.76 32.00 21.56 68.36 33.98 51.0 Not Reported 6.93 W 8.50 W 10.29 NW No 0.000 No Precipitation 03/24/2021 09:44 PM 03/24/2021 09:54 PM 0.000 0.000 0.000 0.000 0.000 Not Reported Not Reported
04/08/2021 04:17 AM 37.22 31.82 21.92 68.36 33.98 53.0 Not Reported 6.71 W 7.38 NW 9.40 W No 0.000 No Precipitation 03/24/2021 09:44 PM 03/24/2021 09:54 PM 0.000 0.000 0.000 0.000 0.000 Not Reported Not Reported
04/08/2021 04:22 AM 37.22 32.00 22.64 68.36 33.98 55.0 Not Reported 7.83 W 6.49 NW 8.72 W No 0.000 No Precipitation 03/24/2021 09:44 PM 03/24/2021 09:54 PM 0.000 0.000 0.000 0.000 0.000 Not Reported Not Reported
04/08/2021 04:27 AM 37.22 32.00 22.28 68.36 33.98 53.0 Not Reported 6.71 W 7.83 W 8.72 W No 0.000 No Precipitation 03/24/2021 09:44 PM 03/24/2021 09:54 PM 0.000 0.000 0.000 0.000 0.000 Not Reported Not Reported
04/08/2021 04:32 AM 36.68 31.82 22.64 68.36 33.98 56.0 Not Reported 5.14 W 4.25 W 9.17 W No 0.000 No Precipitation 03/24/2021 09:44 PM 03/24/2021 09:54 PM 0.000 0.000 0.000 0.000 0.000 Not Reported Not Reported
04/08/2021 04:37 AM 37.04 32.00 23.18 68.36 33.98 56.0 Not Reported 6.26 NW 5.82 W 9.17 W No 0.000 No Precipitation 03/24/2021 09:44 PM 03/24/2021 09:54 PM 0.000 0.000 0.000 0.000 0.000 Not Reported Not Reported
04/08/2021 04:42 AM 36.68 31.82 23.00 68.36 33.98 56.0 Not Reported 6.26 W 6.71 W 8.95 W No 0.000 No Precipitation 03/24/2021 09:44 PM 03/24/2021 09:54 PM 0.000 0.000 0.000 0.000 0.000 Not Reported Not Reported
04/08/2021 04:47 AM 36.32 31.64 23.18 68.36 33.98 58.0 Not Reported 6.26 NW 5.37 W 7.38 NW No 0.000 No Precipitation 03/24/2021 09:44 PM 03/24/2021 09:54 PM 0.000 0.000 0.000 0.000 0.000 Not Reported Not Reported
04/08/2021 04:52 AM 36.32 31.82 23.36 68.36 33.98 58.0 Not Reported 6.04 W 5.82 W 7.38 NW No 0.000 No Precipitation 03/24/2021 09:44 PM 03/24/2021 09:54 PM 0.000 0.000 0.000 0.000 0.000 Not Reported Not Reported
04/08/2021 04:57 AM 35.78 31.64 23.72 68.36 33.98 60.0 Not Reported 5.82 W 6.93 W 7.16 W No 0.000 No Precipitation 03/24/2021 09:44 PM 03/24/2021 09:54 PM 0.000 0.000 0.000 0.000 0.000 Not Reported Not Reported
04/08/2021 05:02 AM 35.96 31.82 24.26 68.36 33.98 61.0 Not Reported 4.92 W 6.71 W 7.38 W No 0.000 No Precipitation 03/24/2021 09:44 PM 03/24/2021 09:54 PM 0.000 0.000 0.000 0.000 0.000 Not Reported Not Reported
04/08/2021 05:07 AM 35.06 31.28 24.26 68.36 33.98 63.0 Not Reported 5.37 W 5.59 W 7.83 NW No 0.000 No Precipitation 03/24/2021 09:44 PM 03/24/2021 09:54 PM 0.000 0.000 0.000 0.000 0.000 Not Reported Not Reported
04/08/2021 05:12 AM 35.42 31.64 24.44 68.36 33.98 63.0 Not Reported 5.37 W 5.82 W 9.62 W No 0.000 No Precipitation 03/24/2021 09:44 PM 03/24/2021 09:54 PM 0.000 0.000 0.000 0.000 0.000 Not Reported Not Reported
04/08/2021 05:17 AM 35.60 31.82 24.80 68.36 33.98 63.0 Not Reported 6.93 NW 8.28 NW 9.62 W No 0.000 No Precipitation 03/24/2021 09:44 PM 03/24/2021 09:54 PM 0.000 0.000 0.000 0.000 0.000 Not Reported Not Reported
04/08/2021 05:22 AM 36.32 32.00 24.98 68.36 33.98 62.0 Not Reported 7.83 W 5.14 W 9.62 NW No 0.000 No Precipitation 03/24/2021 09:44 PM 03/24/2021 09:54 PM 0.000 0.000 0.000 0.000 0.000 Not Reported Not Reported
04/08/2021 05:27 AM 35.78 31.82 24.98 68.36 33.98 64.0 Not Reported 6.04 W 7.16 SW 10.74 NW No 0.000 No Precipitation 03/24/2021 09:44 PM 03/24/2021 09:54 PM 0.000 0.000 0.000 0.000 0.000 Not Reported Not Reported
04/08/2021 05:32 AM 35.24 31.64 25.16 68.36 33.98 65.0 Not Reported 4.92 W 5.59 W 10.74 NW No 0.000 No Precipitation 03/24/2021 09:44 PM 03/24/2021 09:54 PM 0.000 0.000 0.000 0.000 0.000 Not Reported Not Reported
04/08/2021 05:37 AM 35.24 31.64 25.34 68.36 33.98 66.0 Not Reported 6.49 W 7.61 W 7.61 W No 0.000 No Precipitation 03/24/2021 09:44 PM 03/24/2021 09:54 PM 0.000 0.000 0.000 0.000 0.000 Not Reported Not Reported
04/08/2021 05:42 AM 35.60 31.82 25.34 68.36 33.98 65.0 Not Reported 6.26 NW 7.38 W 7.61 W No 0.000 No Precipitation 03/24/2021 09:44 PM 03/24/2021 09:54 PM 0.000 0.000 0.000 0.000 0.000 Not Reported Not Reported
04/08/2021 05:47 AM 35.78 32.00 25.16 68.36 33.98 64.0 Not Reported 7.38 W 6.26 W 8.50 W No 0.000 No Precipitation 03/24/2021 09:44 PM 03/24/2021 09:54 PM 0.000 0.000 0.000 0.000 0.000 Not Reported Not Reported
04/08/2021 05:52 AM 35.78 32.00 25.16 68.36 33.98 64.0 Not Reported 7.61 W 7.38 W 9.40 W No 0.000 No Precipitation 03/24/2021 09:44 PM 03/24/2021 09:54 PM 0.000 0.000 0.000 0.000 0.000 Not Reported Not Reported
04/08/2021 05:57 AM 35.24 31.82 25.52 68.36 33.98 67.0 Not Reported 4.70 W 4.70 W 9.40 W No 0.000 No Precipitation 03/24/2021 09:44 PM 03/24/2021 09:54 PM 0.000 0.000 0.000 0.000 0.000 Not Reported Not Reported
04/08/2021 06:02 AM 34.88 31.64 25.52 68.36 33.98 67.0 Not Reported 5.37 W 5.37 NW 7.38 W No 0.000 No Precipitation 03/24/2021 09:44 PM 03/24/2021 09:54 PM 0.000 0.000 0.000 0.000 0.000 Not Reported Not Reported
04/08/2021 06:07 AM 34.88 31.46 25.52 68.36 33.98 68.0 Not Reported 4.92 W 4.92 W 7.61 NW No 0.000 No Precipitation 03/24/2021 09:44 PM 03/24/2021 09:54 PM 0.000 0.000 0.000 0.000 0.000 Not Reported Not Reported
04/08/2021 06:12 AM 35.06 31.64 25.70 68.36 33.98 67.0 Not Reported 5.37 W 8.50 W 8.50 W No 0.000 No Precipitation 03/24/2021 09:44 PM 03/24/2021 09:54 PM 0.000 0.000 0.000 0.000 0.000 Not Reported Not Reported
04/08/2021 06:17 AM 35.78 32.00 25.52 68.36 33.98 65.0 Not Reported 9.84 NW 11.86 NW 11.86 NW No 0.000 No Precipitation 03/24/2021 09:44 PM 03/24/2021 09:54 PM 0.000 0.000 0.000 0.000 0.000 Not Reported Not Reported
04/08/2021 06:22 AM 35.96 32.18 26.06 68.36 33.98 66.0 Not Reported 9.40 NW 11.41 NW 14.54 NW No 0.000 No Precipitation 03/24/2021 09:44 PM 03/24/2021 09:54 PM 0.000 0.000 0.000 0.000 0.000 Not Reported Not Reported
04/08/2021 06:27 AM 36.14 32.54 26.60 68.36 33.98 67.0 Not Reported 11.86 NW 11.63 W 14.99 W No 0.000 No Precipitation 03/24/2021 09:44 PM 03/24/2021 09:54 PM 0.000 0.000 0.000 0.000 0.000 Not Reported Not Reported
04/08/2021 06:32 AM 35.96 32.54 26.78 68.36 33.98 68.0 Not Reported 10.74 W 12.75 NW 14.99 W No 0.000 No Precipitation 03/24/2021 09:44 PM 03/24/2021 09:54 PM 0.000 0.000 0.000 0.000 0.000 Not Reported Not Reported
04/08/2021 06:37 AM 35.78 32.36 26.78 68.36 33.98 68.0 Not Reported 11.86 NW 13.87 NW 13.87 NW No 0.000 No Precipitation 03/24/2021 09:44 PM 03/24/2021 09:54 PM 0.000 0.000 0.000 0.000 0.000 Not Reported Not Reported
04/08/2021 06:42 AM 35.24 32.00 26.78 68.36 33.98 70.0 Not Reported 7.61 NW 6.26 W 13.87 NW No 0.000 No Precipitation 03/24/2021 09:44 PM 03/24/2021 09:54 PM 0.000 0.000 0.000 0.000 0.000 Not Reported Not Reported
04/08/2021 06:47 AM 34.88 32.00 26.96 68.36 33.98 72.0 Not Reported 6.49 NW 4.25 NW 10.29 N No 0.000 No Precipitation 03/24/2021 09:44 PM 03/24/2021 09:54 PM 0.000 0.000 0.000 0.000 0.000 Not Reported Not Reported
04/08/2021 06:52 AM 34.52 31.82 26.96 68.36 33.98 72.0 Not Reported 7.83 W 9.17 W 12.30 W No 0.000 No Precipitation 03/24/2021 09:44 PM 03/24/2021 09:54 PM 0.000 0.000 0.000 0.000 0.000 Not Reported Not Reported
04/08/2021 06:57 AM 34.52 31.82 26.96 68.36 33.98 72.0 Not Reported 8.05 W 6.93 W 12.30 W No 0.000 No Precipitation 03/24/2021 09:44 PM 03/24/2021 09:54 PM 0.000 0.000 0.000 0.000 0.000 Not Reported Not Reported
04/08/2021 07:02 AM 34.34 31.64 27.14 68.36 33.98 73.0 Not Reported 6.71 W 7.83 W 10.51 NW No 0.000 No Precipitation 03/24/2021 09:44 PM 03/24/2021 09:54 PM 0.000 0.000 0.000 0.000 0.000 Not Reported Not Reported
04/08/2021 07:07 AM 34.34 31.64 26.78 68.36 33.98 73.0 Not Reported 6.71 W 5.82 SW 8.72 SW No 0.000 No Precipitation 03/24/2021 09:44 PM 03/24/2021 09:54 PM 0.000 0.000 0.000 0.000 0.000 Not Reported Not Reported
04/08/2021 07:12 AM 34.88 32.00 26.96 68.36 33.98 72.0 Not Reported 6.49 W 5.82 W 9.40 W No 0.000 No Precipitation 03/24/2021 09:44 PM 03/24/2021 09:54 PM 0.000 0.000 0.000 0.000 0.000 Not Reported Not Reported
04/08/2021 07:17 AM 35.06 32.00 26.78 68.36 33.98 71.0 Not Reported 6.71 W 4.03 W 9.40 W No 0.000 No Precipitation 03/24/2021 09:44 PM 03/24/2021 09:54 PM 0.000 0.000 0.000 0.000 0.000 Not Reported Not Reported
04/08/2021 07:22 AM 35.06 32.00 26.96 68.36 33.98 71.0 Not Reported 8.05 W 9.84 W 10.29 NW No 0.000 No Precipitation 03/24/2021 09:44 PM 03/24/2021 09:54 PM 0.000 0.000 0.000 0.000 0.000 Not Reported Not Reported
04/08/2021 07:27 AM 35.24 32.18 26.96 68.36 33.98 70.0 Not Reported 7.61 NW 7.16 NW 10.29 NW No 0.000 No Precipitation 03/24/2021 09:44 PM 03/24/2021 09:54 PM 0.000 0.000 0.000 0.000 0.000 Not Reported Not Reported
04/08/2021 07:32 AM 35.24 32.18 27.32 68.36 33.98 72.0 Not Reported 10.51 NW 12.08 NW 12.08 NW No 0.000 No Precipitation 03/24/2021 09:44 PM 03/24/2021 09:54 PM 0.000 0.000 0.000 0.000 0.000 Not Reported Not Reported
04/08/2021 07:37 AM 35.24 32.18 27.32 68.36 33.98 71.0 Not Reported 10.74 NW 10.51 NW 12.08 NW No 0.000 No Precipitation 03/24/2021 09:44 PM 03/24/2021 09:54 PM 0.000 0.000 0.000 0.000 0.000 Not Reported Not Reported
04/08/2021 07:42 AM 35.06 32.18 27.50 68.36 33.98 72.0 Not Reported 10.74 NW 10.29 NW 12.75 NW No 0.000 No Precipitation 03/24/2021 09:44 PM 03/24/2021 09:54 PM 0.000 0.000 0.000 0.000 0.000 Not Reported Not Reported
04/08/2021 07:47 AM 34.88 32.00 27.50 68.36 33.98 73.0 Not Reported 10.07 NW 10.74 W 12.75 NW No 0.000 No Precipitation 03/24/2021 09:44 PM 03/24/2021 09:54 PM 0.000 0.000 0.000 0.000 0.000 Not Reported Not Reported
04/08/2021 07:52 AM 35.24 32.18 27.50 68.36 33.98 72.0 Not Reported 11.86 NW 8.95 NW 13.87 NW No 0.000 No Precipitation 03/24/2021 09:44 PM 03/24/2021 09:54 PM 0.000 0.000 0.000 0.000 0.000 Not Reported Not Reported
04/08/2021 07:57 AM 35.78 32.72 27.68 68.36 33.98 71.0 Not Reported 9.17 W 9.84 W 14.09 W No 0.000 No Precipitation 03/24/2021 09:44 PM 03/24/2021 09:54 PM 0.000 0.000 0.000 0.000 0.000 Not Reported Not Reported
04/08/2021 08:02 AM 35.24 32.36 27.50 68.36 33.98 72.0 Not Reported 10.51 NW 8.72 NW 14.09 W No 0.000 No Precipitation 03/24/2021 09:44 PM 03/24/2021 09:54 PM 0.000 0.000 0.000 0.000 0.000 Not Reported Not Reported
04/08/2021 08:07 AM 35.78 32.72 27.68 68.36 33.98 71.0 Not Reported 8.95 W 9.62 NW 12.75 NW No 0.000 No Precipitation 03/24/2021 09:44 PM 03/24/2021 09:54 PM 0.000 0.000 0.000 0.000 0.000 Not Reported Not Reported
04/08/2021 08:12 AM 35.78 32.54 27.50 68.36 33.98 70.0 Not Reported 10.29 NW 12.97 NW 12.97 NW No 0.000 No Precipitation 03/24/2021 09:44 PM 03/24/2021 09:54 PM 0.000 0.000 0.000 0.000 0.000 Not Reported Not Reported
04/08/2021 08:17 AM 36.32 32.90 27.50 68.36 33.98 69.0 Not Reported 7.38 W 10.07 W 12.97 NW No 0.000 No Precipitation 03/24/2021 09:44 PM 03/24/2021 09:54 PM 0.000 0.000 0.000 0.000 0.000 Not Reported Not Reported
04/08/2021 08:22 AM 36.50 32.90 27.68 68.36 33.98 69.0 Not Reported 6.49 W 7.38 SW 10.51 NW No 0.000 No Precipitation 03/24/2021 09:44 PM 03/24/2021 09:54 PM 0.000 0.000 0.000 0.000 0.000 Not Reported Not Reported
04/08/2021 08:27 AM 36.86 33.26 27.68 68.36 33.98 68.0 Not Reported 7.83 W 6.71 NW 9.84 W No 0.000 No Precipitation 03/24/2021 09:44 PM 03/24/2021 09:54 PM 0.000 0.000 0.000 0.000 0.000 Not Reported Not Reported
04/08/2021 08:32 AM 37.04 33.44 27.86 68.36 33.98 68.0 Not Reported 9.62 W 8.50 W 12.30 W No 0.000 No Precipitation 03/24/2021 09:44 PM 03/24/2021 09:54 PM 0.000 0.000 0.000 0.000 0.000 Not Reported Not Reported
04/08/2021 08:37 AM 36.68 33.08 27.50 68.36 33.98 68.0 Not Reported 11.63 W 14.54 W 14.54 W No 0.000 No Precipitation 03/24/2021 09:44 PM 03/24/2021 09:54 PM 0.000 0.000 0.000 0.000 0.000 Not Reported Not Reported
04/08/2021 08:42 AM 37.04 33.44 28.04 68.36 33.98 69.0 Not Reported 8.50 W 7.61 SW 14.54 W No 0.000 No Precipitation 03/24/2021 09:44 PM 03/24/2021 09:54 PM 0.000 0.000 0.000 0.000 0.000 Not Reported Not Reported
04/08/2021 08:52 AM 37.04 33.26 27.32 68.36 33.98 67.0 Not Reported 9.84 W 12.30 W 12.30 W No 0.000 No Precipitation 03/24/2021 09:44 PM 03/24/2021 09:54 PM 0.000 0.000 0.000 0.000 0.000 Not Reported Not Reported
04/08/2021 08:57 AM 37.40 33.44 27.32 68.36 33.98 66.0 Not Reported 10.51 W 9.62 NW 12.75 SW No 0.000 No Precipitation 03/24/2021 09:44 PM 03/24/2021 09:54 PM 0.000 0.000 0.000 0.000 0.000 Not Reported Not Reported
04/08/2021 09:02 AM 37.58 33.62 27.68 68.36 33.98 66.0 Not Reported 8.95 W 10.07 W 12.75 SW No 0.000 No Precipitation 03/24/2021 09:44 PM 03/24/2021 09:54 PM 0.000 0.000 0.000 0.000 0.000 Not Reported Not Reported
04/08/2021 09:07 AM 37.94 33.98 27.68 68.36 33.98 65.0 Not Reported 6.93 W 6.49 W 11.63 W No 0.000 No Precipitation 03/24/2021 09:44 PM 03/24/2021 09:54 PM 0.000 0.000 0.000 0.000 0.000 Not Reported Not Reported
04/08/2021 09:12 AM 38.30 33.80 26.60 68.36 33.98 62.0 Not Reported 9.62 NW 13.87 W 13.87 W No 0.000 No Precipitation 03/24/2021 09:44 PM 03/24/2021 09:54 PM 0.000 0.000 0.000 0.000 0.000 Not Reported Not Reported
04/08/2021 09:17 AM 38.48 33.80 26.42 68.36 33.98 61.0 Not Reported 11.18 NW 9.84 NW 13.87 W No 0.000 No Precipitation 03/24/2021 09:44 PM 03/24/2021 09:54 PM 0.000 0.000 0.000 0.000 0.000 Not Reported Not Reported
04/08/2021 09:22 AM 39.20 34.52 27.32 68.36 33.98 61.0 Not Reported 10.29 W 7.83 NW 13.87 SW No 0.000 No Precipitation 03/24/2021 09:44 PM 03/24/2021 09:54 PM 0.000 0.000 0.000 0.000 0.000 Not Reported Not Reported
04/08/2021 09:27 AM 39.74 34.52 26.60 68.36 33.98 58.0 Not Reported 9.17 W 8.72 W 13.87 SW No 0.000 No Precipitation 03/24/2021 09:44 PM 03/24/2021 09:54 PM 0.000 0.000 0.000 0.000 0.000 Not Reported Not Reported
04/08/2021 09:32 AM 39.92 34.52 26.06 68.36 33.98 57.0 Not Reported 11.41 W 10.96 W 13.42 W No 0.000 No Precipitation 03/24/2021 09:44 PM 03/24/2021 09:54 PM 0.000 0.000 0.000 0.000 0.000 Not Reported Not Reported
04/08/2021 09:37 AM 40.64 35.06 26.42 68.36 33.98 56.0 Not Reported 9.40 W 11.18 W 12.30 NW No 0.000 No Precipitation 03/24/2021 09:44 PM 03/24/2021 09:54 PM 0.000 0.000 0.000 0.000 0.000 Not Reported Not Reported
04/08/2021 09:42 AM 41.36 35.78 27.14 68.36 33.98 56.0 Not Reported 8.95 W 9.62 W 12.08 W No 0.000 No Precipitation 03/24/2021 09:44 PM 03/24/2021 09:54 PM 0.000 0.000 0.000 0.000 0.000 Not Reported Not Reported
04/08/2021 09:47 AM 41.36 35.60 26.78 68.36 33.98 55.0 Not Reported 8.72 W 7.61 NW 11.86 NW No 0.000 No Precipitation 03/24/2021 09:44 PM 03/24/2021 09:54 PM 0.000 0.000 0.000 0.000 0.000 Not Reported Not Reported
04/08/2021 09:52 AM 41.54 35.78 26.78 68.36 33.98 55.0 Not Reported 9.40 W 3.36 W 12.30 W No 0.000 No Precipitation 03/24/2021 09:44 PM 03/24/2021 09:54 PM 0.000 0.000 0.000 0.000 0.000 Not Reported Not Reported
04/08/2021 09:57 AM 42.62 36.50 27.50 68.36 33.98 54.0 Not Reported 5.82 W 6.26 W 12.53 NW No 0.000 No Precipitation 03/24/2021 09:44 PM 03/24/2021 09:54 PM 0.000 0.000 0.000 0.000 0.000 Not Reported Not Reported
04/08/2021 10:02 AM 42.44 36.14 26.60 68.36 33.98 53.0 Not Reported 7.83 W 10.96 W 12.53 NW No 0.000 No Precipitation 03/24/2021 09:44 PM 03/24/2021 09:54 PM 0.000 0.000 0.000 0.000 0.000 Not Reported Not Reported
04/08/2021 10:07 AM 42.44 36.32 27.14 68.36 33.98 53.0 Not Reported 8.05 W 7.38 W 10.96 W No 0.000 No Precipitation 03/24/2021 09:44 PM 03/24/2021 09:54 PM 0.000 0.000 0.000 0.000 0.000 Not Reported Not Reported
04/08/2021 10:12 AM 44.06 37.22 27.14 68.36 33.98 50.0 Not Reported 8.28 NW 8.50 NW 10.29 NW No 0.000 No Precipitation 03/24/2021 09:44 PM 03/24/2021 09:54 PM 0.000 0.000 0.000 0.000 0.000 Not Reported Not Reported
04/08/2021 10:17 AM 44.06 37.22 26.96 68.36 33.98 50.0 Not Reported 7.61 NW 8.05 NW 12.08 NW No 0.000 No Precipitation 03/24/2021 09:44 PM 03/24/2021 09:54 PM 0.000 0.000 0.000 0.000 0.000 Not Reported Not Reported
04/08/2021 10:22 AM 43.88 37.04 26.78 68.36 33.98 50.0 Not Reported 9.62 NW 8.05 W 12.08 NW No 0.000 No Precipitation 03/24/2021 09:44 PM 03/24/2021 09:54 PM 0.000 0.000 0.000 0.000 0.000 Not Reported Not Reported
04/08/2021 10:27 AM 45.68 38.12 26.96 68.36 33.98 47.0 Not Reported 6.93 NW 6.93 W 11.63 W No 0.000 No Precipitation 03/24/2021 09:44 PM 03/24/2021 09:54 PM 0.000 0.000 0.000 0.000 0.000 Not Reported Not Reported
04/08/2021 10:32 AM 44.96 37.40 26.06 68.36 33.98 47.0 Not Reported 9.17 NW 10.51 W 10.51 NW No 0.000 No Precipitation 03/24/2021 09:44 PM 03/24/2021 09:54 PM 0.000 0.000 0.000 0.000 0.000 Not Reported Not Reported
04/08/2021 10:37 AM 45.32 37.40 25.70 68.36 33.98 45.0 Not Reported 8.05 W 10.29 NW 11.86 NW No 0.000 No Precipitation 03/24/2021 09:44 PM 03/24/2021 09:54 PM 0.000 0.000 0.000 0.000 0.000 Not Reported Not Reported
04/08/2021 10:42 AM 45.14 37.04 24.62 68.36 33.98 43.0 Not Reported 8.95 NW 10.07 NW 13.65 W No 0.000 No Precipitation 03/24/2021 09:44 PM 03/24/2021 09:54 PM 0.000 0.000 0.000 0.000 0.000 Not Reported Not Reported
04/08/2021 10:47 AM 45.14 37.22 25.16 68.36 33.98 44.0 Not Reported 11.41 NW 10.51 NW 13.87 NW No 0.000 No Precipitation 03/24/2021 09:44 PM 03/24/2021 09:54 PM 0.000 0.000 0.000 0.000 0.000 Not Reported Not Reported
04/08/2021 10:52 AM 45.14 37.04 24.26 68.36 33.98 43.0 Not Reported 12.30 NW 9.40 W 13.87 NW No 0.000 No Precipitation 03/24/2021 09:44 PM 03/24/2021 09:54 PM 0.000 0.000 0.000 0.000 0.000 Not Reported Not Reported
04/08/2021 10:57 AM 47.66 38.84 25.70 68.36 33.98 41.0 Not Reported 5.37 W 8.95 NW 13.87 NW No 0.000 No Precipitation 03/24/2021 09:44 PM 03/24/2021 09:54 PM 0.000 0.000 0.000 0.000 0.000 Not Reported Not Reported
04/08/2021 11:02 AM 47.30 38.48 24.98 68.36 33.98 40.0 Not Reported 7.16 NW 9.40 NW 12.97 W No 0.000 No Precipitation 03/24/2021 09:44 PM 03/24/2021 09:54 PM 0.000 0.000 0.000 0.000 0.000 Not Reported Not Reported
04/08/2021 11:07 AM 47.30 38.30 24.44 68.36 33.98 40.0 Not Reported 7.38 W 9.17 W 12.53 N No 0.000 No Precipitation 03/24/2021 09:44 PM 03/24/2021 09:54 PM 0.000 0.000 0.000 0.000 0.000 Not Reported Not Reported
04/08/2021 11:12 AM 47.30 38.12 24.26 68.36 33.98 39.0 Not Reported 10.74 NW 6.71 W 12.97 W No 0.000 No Precipitation 03/24/2021 09:44 PM 03/24/2021 09:54 PM 0.000 0.000 0.000 0.000 0.000 Not Reported Not Reported
04/08/2021 11:17 AM 48.56 38.66 23.72 68.36 33.98 36.0 Not Reported 4.70 W 6.49 NW 12.97 W No 0.000 No Precipitation 03/24/2021 09:44 PM 03/24/2021 09:54 PM 0.000 0.000 0.000 0.000 0.000 Not Reported Not Reported
04/08/2021 11:23 AM 48.02 37.76 20.84 68.36 33.98 33.0 Not Reported 7.16 W 6.71 SW 9.84 W No 0.000 No Precipitation 03/24/2021 09:44 PM 03/24/2021 09:54 PM 0.000 0.000 0.000 0.000 0.000 Not Reported Not Reported
04/08/2021 11:28 AM 49.28 38.66 22.64 68.36 33.98 34.0 Not Reported 7.16 W 4.47 W 11.18 W No 0.000 No Precipitation 03/24/2021 09:44 PM 03/24/2021 09:54 PM 0.000 0.000 0.000 0.000 0.000 Not Reported Not Reported
04/08/2021 11:32 AM 49.64 39.02 22.64 68.36 33.98 33.0 Not Reported 5.82 NW 6.04 W 11.18 W No 0.000 No Precipitation 03/24/2021 09:44 PM 03/24/2021 09:54 PM 0.000 0.000 0.000 0.000 0.000 Not Reported Not Reported
04/08/2021 11:37 AM 49.82 39.38 23.72 68.36 33.98 35.0 Not Reported 8.95 NW 6.93 NW 11.18 W No 0.000 No Precipitation 03/24/2021 09:44 PM 03/24/2021 09:54 PM 0.000 0.000 0.000 0.000 0.000 Not Reported Not Reported
04/08/2021 11:42 AM 50.72 39.92 23.72 68.36 33.98 34.0 Not Reported 5.59 W 6.04 W 10.96 NW No 0.000 No Precipitation 03/24/2021 09:44 PM 03/24/2021 09:54 PM 0.000 0.000 0.000 0.000 0.000 Not Reported Not Reported
04/08/2021 11:47 AM 51.08 39.74 22.28 68.36 33.98 31.0 Not Reported 10.74 NW 12.97 NW 12.97 NW No 0.000 No Precipitation 03/24/2021 09:44 PM 03/24/2021 09:54 PM 0.000 0.000 0.000 0.000 0.000 Not Reported Not Reported
04/08/2021 11:52 AM 50.00 39.02 21.56 68.36 33.98 32.0 Not Reported 9.62 NW 13.65 NW 17.45 NW No 0.000 No Precipitation 03/24/2021 09:44 PM 03/24/2021 09:54 PM 0.000 0.000 0.000 0.000 0.000 Not Reported Not Reported
04/08/2021 11:57 AM 50.72 39.74 23.36 68.36 33.98 33.0 Not Reported 8.05 W 6.71 W 17.45 NW No 0.000 No Precipitation 03/24/2021 09:44 PM 03/24/2021 09:54 PM 0.000 0.000 0.000 0.000 0.000 Not Reported Not Reported
04/08/2021 12:02 PM 50.54 39.38 21.92 68.36 33.98 31.0 Not Reported 9.84 W 6.71 N 14.32 W No 0.000 No Precipitation 03/24/2021 09:44 PM 03/24/2021 09:54 PM 0.000 0.000 0.000 0.000 0.000 Not Reported Not Reported
04/08/2021 12:12 PM 50.90 39.74 22.46 68.36 33.98 32.0 Not Reported 8.28 W 8.72 NW 13.20 W No 0.000 No Precipitation 03/24/2021 09:44 PM 03/24/2021 09:54 PM 0.000 0.000 0.000 0.000 0.000 Not Reported Not Reported
04/08/2021 12:17 PM 51.44 39.92 22.28 68.36 33.98 31.0 Not Reported 9.17 W 5.59 W 13.20 SW No 0.000 No Precipitation 03/24/2021 09:44 PM 03/24/2021 09:54 PM 0.000 0.000 0.000 0.000 0.000 Not Reported Not Reported
04/08/2021 12:22 PM 52.34 40.46 22.64 68.36 33.98 30.0 Not Reported 8.28 NW 10.07 N 13.20 SW No 0.000 No Precipitation 03/24/2021 09:44 PM 03/24/2021 09:54 PM 0.000 0.000 0.000 0.000 0.000 Not Reported Not Reported
04/08/2021 12:27 PM 51.62 39.92 22.10 68.36 33.98 31.0 Not Reported 9.84 W 12.30 W 12.97 NW No 0.000 No Precipitation 03/24/2021 09:44 PM 03/24/2021 09:54 PM 0.000 0.000 0.000 0.000 0.000 Not Reported Not Reported
04/08/2021 12:32 PM 52.52 40.64 23.00 68.36 33.98 31.0 Not Reported 7.61 NW 9.17 NW 12.97 NW No 0.000 No Precipitation 03/24/2021 09:44 PM 03/24/2021 09:54 PM 0.000 0.000 0.000 0.000 0.000 Not Reported Not Reported
04/08/2021 12:37 PM 51.62 40.10 22.64 68.36 33.98 31.0 Not Reported 8.95 NW 6.93 NW 12.08 NW No 0.000 No Precipitation 03/24/2021 09:44 PM 03/24/2021 09:54 PM 0.000 0.000 0.000 0.000 0.000 Not Reported Not Reported
04/08/2021 12:42 PM 52.52 40.64 22.82 68.36 33.98 30.0 Not Reported 8.50 NW 7.83 W 12.08 NW No 0.000 No Precipitation 03/24/2021 09:44 PM 03/24/2021 09:54 PM 0.000 0.000 0.000 0.000 0.000 Not Reported Not Reported
04/08/2021 12:47 PM 52.52 40.64 22.82 68.36 33.98 30.0 Not Reported 8.50 NW 7.83 NW 11.18 NW No 0.000 No Precipitation 03/24/2021 09:44 PM 03/24/2021 09:54 PM 0.000 0.000 0.000 0.000 0.000 Not Reported Not Reported
04/08/2021 12:52 PM 52.52 40.64 23.00 68.36 33.98 31.0 Not Reported 8.28 W 8.28 NW 11.63 W No 0.000 No Precipitation 03/24/2021 09:44 PM 03/24/2021 09:54 PM 0.000 0.000 0.000 0.000 0.000 Not Reported Not Reported
04/08/2021 12:57 PM 52.70 40.46 22.10 68.36 33.98 29.0 Not Reported 8.05 NW 10.29 NW 11.63 W No 0.000 No Precipitation 03/24/2021 09:44 PM 03/24/2021 09:54 PM 0.000 0.000 0.000 0.000 0.000 Not Reported Not Reported
04/08/2021 01:02 PM 52.34 40.28 21.74 68.36 33.98 29.0 Not Reported 8.95 NW 2.24 NW 11.63 NW No 0.000 No Precipitation 03/24/2021 09:44 PM 03/24/2021 09:54 PM 0.000 0.000 0.000 0.000 0.000 Not Reported Not Reported
04/08/2021 01:07 PM 53.96 41.18 22.10 68.36 33.98 28.0 Not Reported 7.16 NW 9.40 NW 11.63 NW No 0.000 No Precipitation 03/24/2021 09:44 PM 03/24/2021 09:54 PM 0.000 0.000 0.000 0.000 0.000 Not Reported Not Reported
04/08/2021 01:12 PM 52.16 40.28 22.64 68.36 33.98 30.0 Not Reported 8.05 NW 4.92 NW 10.96 W No 0.000 No Precipitation 03/24/2021 09:44 PM 03/24/2021 09:54 PM 0.000 0.000 0.000 0.000 0.000 Not Reported Not Reported
04/08/2021 01:17 PM 53.78 41.18 22.10 68.36 33.98 28.0 Not Reported 10.74 W 14.09 W 14.09 W No 0.000 No Precipitation 03/24/2021 09:44 PM 03/24/2021 09:54 PM 0.000 0.000 0.000 0.000 0.000 Not Reported Not Reported
04/08/2021 01:22 PM 53.24 40.82 22.28 68.36 33.98 29.0 Not Reported 10.07 NW 11.41 NW 14.09 NW No 0.000 No Precipitation 03/24/2021 09:44 PM 03/24/2021 09:54 PM 0.000 0.000 0.000 0.000 0.000 Not Reported Not Reported
04/08/2021 01:27 PM 53.96 41.36 22.82 68.36 33.98 29.0 Not Reported 9.17 NW 8.72 W 14.09 NW No 0.000 No Precipitation 03/24/2021 09:44 PM 03/24/2021 09:54 PM 0.000 0.000 0.000 0.000 0.000 Not Reported Not Reported
04/08/2021 01:32 PM 54.50 41.54 22.64 68.36 33.98 28.0 Not Reported 9.17 NW 7.16 NW 12.08 N No 0.000 No Precipitation 03/24/2021 09:44 PM 03/24/2021 09:54 PM 0.000 0.000 0.000 0.000 0.000 Not Reported Not Reported
04/08/2021 01:37 PM 54.68 42.08 24.26 68.36 33.98 30.0 Not Reported 8.95 W 6.93 W 12.97 W No 0.000 No Precipitation 03/24/2021 09:44 PM 03/24/2021 09:54 PM 0.000 0.000 0.000 0.000 0.000 Not Reported Not Reported
04/08/2021 01:42 PM 53.06 41.00 23.00 68.36 33.98 30.0 Not Reported 12.53 NW 4.70 NW 15.66 NW No 0.000 No Precipitation 03/24/2021 09:44 PM 03/24/2021 09:54 PM 0.000 0.000 0.000 0.000 0.000 Not Reported Not Reported
04/08/2021 01:47 PM 53.42 41.18 23.36 68.36 33.98 30.0 Not Reported 10.29 W 10.07 W 15.66 NW No 0.000 No Precipitation 03/24/2021 09:44 PM 03/24/2021 09:54 PM 0.000 0.000 0.000 0.000 0.000 Not Reported Not Reported
04/08/2021 01:52 PM 53.42 41.18 23.00 68.36 33.98 30.0 Not Reported 8.95 NW 7.38 N 13.65 NW No 0.000 No Precipitation 03/24/2021 09:44 PM 03/24/2021 09:54 PM 0.000 0.000 0.000 0.000 0.000 Not Reported Not Reported
04/08/2021 01:57 PM 54.32 41.54 23.00 68.36 33.98 28.0 Not Reported 12.53 NW 10.07 NW 14.99 W No 0.000 No Precipitation 03/24/2021 09:44 PM 03/24/2021 09:54 PM 0.000 0.000 0.000 0.000 0.000 Not Reported Not Reported
04/08/2021 02:02 PM 55.04 42.44 24.62 68.36 33.98 30.0 Not Reported 8.95 W 7.83 W 14.99 W No 0.000 No Precipitation 03/24/2021 09:44 PM 03/24/2021 09:54 PM 0.000 0.000 0.000 0.000 0.000 Not Reported Not Reported
04/08/2021 02:07 PM 54.86 42.26 24.08 68.36 33.98 29.0 Not Reported 7.83 NW 9.84 W 13.87 W No 0.000 No Precipitation 03/24/2021 09:44 PM 03/24/2021 09:54 PM 0.000 0.000 0.000 0.000 0.000 Not Reported Not Reported
04/08/2021 02:12 PM 55.22 42.44 24.26 68.36 33.98 29.0 Not Reported 6.04 W 5.59 W 13.87 W No 0.000 No Precipitation 03/24/2021 09:44 PM 03/24/2021 09:54 PM 0.000 0.000 0.000 0.000 0.000 Not Reported Not Reported
04/08/2021 02:17 PM 55.94 42.62 23.90 68.36 33.98 28.0 Not Reported 9.40 NW 11.63 NW 13.42 NW No 0.000 No Precipitation 03/24/2021 09:44 PM 03/24/2021 09:54 PM 0.000 0.000 0.000 0.000 0.000 Not Reported Not Reported
04/08/2021 02:22 PM 54.32 41.72 23.54 68.36 33.98 29.0 Not Reported 11.18 NW 12.75 NW 14.09 NW No 0.000 No Precipitation 03/24/2021 09:44 PM 03/24/2021 09:54 PM 0.000 0.000 0.000 0.000 0.000 Not Reported Not Reported
04/08/2021 02:27 PM 55.40 42.26 23.18 68.36 33.98 28.0 Not Reported 8.95 NW 9.62 W 14.09 NW No 0.000 No Precipitation 03/24/2021 09:44 PM 03/24/2021 09:54 PM 0.000 0.000 0.000 0.000 0.000 Not Reported Not Reported
04/08/2021 02:32 PM 55.58 42.44 23.90 68.36 33.98 29.0 Not Reported 8.95 NW 9.17 NW 11.86 N No 0.000 No Precipitation 03/24/2021 09:44 PM 03/24/2021 09:54 PM 0.000 0.000 0.000 0.000 0.000 Not Reported Not Reported
04/08/2021 02:37 PM 57.38 43.52 23.90 68.36 33.98 27.0 Not Reported 8.95 NW 10.96 W 11.18 NW No 0.000 No Precipitation 03/24/2021 09:44 PM 03/24/2021 09:54 PM 0.000 0.000 0.000 0.000 0.000 Not Reported Not Reported
04/08/2021 02:43 PM 56.48 42.62 22.82 68.36 33.98 26.0 Not Reported 10.07 NW 9.17 N 12.08 NW No 0.000 No Precipitation 03/24/2021 09:44 PM 03/24/2021 09:54 PM 0.000 0.000 0.000 0.000 0.000 Not Reported Not Reported
04/08/2021 02:47 PM 56.66 43.16 24.44 68.36 33.98 28.0 Not Reported 7.16 W 6.04 W 12.08 NW No 0.000 No Precipitation 03/24/2021 09:44 PM 03/24/2021 09:54 PM 0.000 0.000 0.000 0.000 0.000 Not Reported Not Reported
04/08/2021 02:52 PM 56.48 42.80 23.36 68.36 33.98 27.0 Not Reported 7.61 W 7.83 W 12.53 NW No 0.000 No Precipitation 03/24/2021 09:44 PM 03/24/2021 09:54 PM 0.000 0.000 0.000 0.000 0.000 Not Reported Not Reported
04/08/2021 02:57 PM 56.48 42.98 23.72 68.36 33.98 27.0 Not Reported 5.82 W 5.14 W 12.53 NW No 0.000 No Precipitation 03/24/2021 09:44 PM 03/24/2021 09:54 PM 0.000 0.000 0.000 0.000 0.000 Not Reported Not Reported
04/08/2021 03:02 PM 56.66 42.98 23.72 68.36 33.98 27.0 Not Reported 7.16 W 10.07 W 11.41 W No 0.000 No Precipitation 03/24/2021 09:44 PM 03/24/2021 09:54 PM 0.000 0.000 0.000 0.000 0.000 Not Reported Not Reported
04/08/2021 03:07 PM 55.94 42.44 23.36 68.36 33.98 27.0 Not Reported 8.50 W 5.59 W 12.30 W No 0.000 No Precipitation 03/24/2021 09:44 PM 03/24/2021 09:54 PM 0.000 0.000 0.000 0.000 0.000 Not Reported Not Reported
04/08/2021 03:12 PM 58.46 44.06 24.80 68.36 33.98 27.0 Not Reported 5.59 NW 5.37 W 12.30 W No 0.000 No Precipitation 03/24/2021 09:44 PM 03/24/2021 09:54 PM 0.000 0.000 0.000 0.000 0.000 Not Reported Not Reported
04/08/2021 03:17 PM 57.02 43.16 23.36 68.36 33.98 26.0 Not Reported 8.95 W 9.84 W 13.20 W No 0.000 No Precipitation 03/24/2021 09:44 PM 03/24/2021 09:54 PM 0.000 0.000 0.000 0.000 0.000 Not Reported Not Reported
04/08/2021 03:22 PM 58.64 43.88 23.54 68.36 33.98 25.0 Not Reported 8.72 N 9.84 W 13.20 W No 0.000 No Precipitation 03/24/2021 09:44 PM 03/24/2021 09:54 PM 0.000 0.000 0.000 0.000 0.000 Not Reported Not Reported
04/08/2021 03:27 PM 58.28 43.70 23.36 68.36 33.98 25.0 Not Reported 6.49 W 6.71 W 11.41 W No 0.000 No Precipitation 03/24/2021 09:44 PM 03/24/2021 09:54 PM 0.000 0.000 0.000 0.000 0.000 Not Reported Not Reported
04/08/2021 03:32 PM 58.28 43.70 22.82 68.36 33.98 25.0 Not Reported 7.38 NW 3.80 NW 11.41 W No 0.000 No Precipitation 03/24/2021 09:44 PM 03/24/2021 09:54 PM 0.000 0.000 0.000 0.000 0.000 Not Reported Not Reported
04/08/2021 03:37 PM 57.92 43.16 21.20 68.36 33.98 23.0 Not Reported 7.83 W 9.84 W 11.86 W No 0.000 No Precipitation 03/24/2021 09:44 PM 03/24/2021 09:54 PM 0.000 0.000 0.000 0.000 0.000 Not Reported Not Reported
04/08/2021 03:42 PM 58.64 43.34 20.84 68.36 33.98 22.0 Not Reported 6.49 W 5.59 NW 11.86 W No 0.000 No Precipitation 03/24/2021 09:44 PM 03/24/2021 09:54 PM 0.000 0.000 0.000 0.000 0.000 Not Reported Not Reported
04/08/2021 03:52 PM 59.18 43.16 18.68 68.36 33.98 20.0 Not Reported 5.82 W 8.72 W 10.96 NW No 0.000 No Precipitation 03/24/2021 09:44 PM 03/24/2021 09:54 PM 0.000 0.000 0.000 0.000 0.000 Not Reported Not Reported
04/08/2021 03:57 PM 58.82 42.98 19.04 68.36 33.98 20.0 Not Reported 6.71 NW 8.28 N 10.29 NW No 0.000 No Precipitation 03/24/2021 09:44 PM 03/24/2021 09:54 PM 0.000 0.000 0.000 0.000 0.000 Not Reported Not Reported
04/08/2021 04:02 PM 59.00 42.98 17.96 68.36 33.98 19.0 Not Reported 6.26 W 6.26 NW 10.29 NW No 0.000 No Precipitation 03/24/2021 09:44 PM 03/24/2021 09:54 PM 0.000 0.000 0.000 0.000 0.000 Not Reported Not Reported
04/08/2021 04:07 PM 58.64 42.98 19.04 66.92 33.98 21.0 Not Reported 6.26 NW 8.72 NW 10.07 NW No 0.000 No Precipitation 03/24/2021 09:44 PM 03/24/2021 09:54 PM 0.000 0.000 0.000 0.000 0.000 Not Reported Not Reported
04/08/2021 04:12 PM 57.56 42.44 19.22 66.92 33.98 21.0 Not Reported 6.49 W 6.71 W 10.07 W No 0.000 No Precipitation 03/24/2021 09:44 PM 03/24/2021 09:54 PM 0.000 0.000 0.000 0.000 0.000 Not Reported Not Reported
04/08/2021 04:17 PM 57.92 42.44 18.14 66.92 33.98 20.0 Not Reported 6.49 NW 7.16 NW 9.84 NW No 0.000 No Precipitation 03/24/2021 09:44 PM 03/24/2021 09:54 PM 0.000 0.000 0.000 0.000 0.000 Not Reported Not Reported
04/08/2021 04:22 PM 57.56 42.26 18.50 66.02 33.98 21.0 Not Reported 9.40 NW 8.50 NW 12.97 NW No 0.000 No Precipitation 03/24/2021 09:44 PM 03/24/2021 09:54 PM 0.000 0.000 0.000 0.000 0.000 Not Reported Not Reported
04/08/2021 04:28 PM 57.56 43.16 20.84 66.02 33.98 23.0 Not Reported 6.71 W 5.59 W 12.97 NW No 0.000 No Precipitation 03/24/2021 09:44 PM 03/24/2021 09:54 PM 0.000 0.000 0.000 0.000 0.000 Not Reported Not Reported
04/08/2021 04:32 PM 57.20 42.44 19.76 66.02 33.98 22.0 Not Reported 7.61 W 6.49 SW 9.62 SW No 0.000 No Precipitation 03/24/2021 09:44 PM 03/24/2021 09:54 PM 0.000 0.000 0.000 0.000 0.000 Not Reported Not Reported
04/08/2021 04:42 PM 58.10 42.80 19.40 66.02 33.98 21.0 Not Reported 7.38 W 6.93 NW 9.84 NW No 0.000 No Precipitation 03/24/2021 09:44 PM 03/24/2021 09:54 PM 0.000 0.000 0.000 0.000 0.000 Not Reported Not Reported
04/08/2021 04:47 PM 57.56 42.80 21.38 65.66 33.98 24.0 Not Reported 7.61 W 7.16 W 11.41 W No 0.000 No Precipitation 03/24/2021 09:44 PM 03/24/2021 09:54 PM 0.000 0.000 0.000 0.000 0.000 Not Reported Not Reported
04/08/2021 04:52 PM 57.74 43.16 21.74 65.66 33.98 24.0 Not Reported 7.38 W 4.92 W 11.41 W No 0.000 No Precipitation 03/24/2021 09:44 PM 03/24/2021 09:54 PM 0.000 0.000 0.000 0.000 0.000 Not Reported Not Reported
04/08/2021 04:57 PM 57.74 42.98 21.38 65.66 33.98 23.0 Not Reported 10.07 NW 10.74 NW 13.42 NW No 0.000 No Precipitation 03/24/2021 09:44 PM 03/24/2021 09:54 PM 0.000 0.000 0.000 0.000 0.000 Not Reported Not Reported
04/08/2021 05:02 PM 58.64 43.70 22.46 65.66 33.98 24.0 Not Reported 6.71 NW 6.26 W 13.42 NW No 0.000 No Precipitation 03/24/2021 09:44 PM 03/24/2021 09:54 PM 0.000 0.000 0.000 0.000 0.000 Not Reported Not Reported
04/08/2021 05:07 PM 58.64 43.70 22.64 65.12 33.98 24.0 Not Reported 5.82 NW 5.82 NW 9.84 W No 0.000 No Precipitation 03/24/2021 09:44 PM 03/24/2021 09:54 PM 0.000 0.000 0.000 0.000 0.000 Not Reported Not Reported
04/08/2021 05:13 PM 57.56 42.98 21.38 65.12 33.98 24.0 Not Reported 8.72 W 8.50 NW 12.08 N No 0.000 No Precipitation 03/24/2021 09:44 PM 03/24/2021 09:54 PM 0.000 0.000 0.000 0.000 0.000 Not Reported Not Reported
04/08/2021 05:17 PM 58.28 43.70 23.00 65.12 33.98 25.0 Not Reported 7.16 NW 10.07 NW 12.08 N No 0.000 No Precipitation 03/24/2021 09:44 PM 03/24/2021 09:54 PM 0.000 0.000 0.000 0.000 0.000 Not Reported Not Reported
04/08/2021 05:22 PM 57.74 43.16 22.28 65.12 33.98 24.0 Not Reported 6.49 NW 7.38 W 10.51 NW No 0.000 No Precipitation 03/24/2021 09:44 PM 03/24/2021 09:54 PM 0.000 0.000 0.000 0.000 0.000 Not Reported Not Reported
04/08/2021 05:28 PM 57.92 43.34 22.28 65.12 33.98 24.0 Not Reported 6.04 W 7.61 W 10.51 NW No 0.000 No Precipitation 03/24/2021 09:44 PM 03/24/2021 09:54 PM 0.000 0.000 0.000 0.000 0.000 Not Reported Not Reported
04/08/2021 05:37 PM 57.92 43.52 23.00 65.12 33.98 25.0 Not Reported 5.82 W 5.14 NW 11.18 W No 0.000 No Precipitation 03/24/2021 09:44 PM 03/24/2021 09:54 PM 0.000 0.000 0.000 0.000 0.000 Not Reported Not Reported
04/08/2021 05:42 PM 57.20 42.98 22.64 64.40 33.98 25.0 Not Reported 7.38 W 7.83 NW 9.40 NW No 0.000 No Precipitation 03/24/2021 09:44 PM 03/24/2021 09:54 PM 0.000 0.000 0.000 0.000 0.000 Not Reported Not Reported
04/08/2021 05:47 PM 57.02 42.98 23.18 63.32 33.98 26.0 Not Reported 9.40 W 8.05 W 10.96 NW No 0.000 No Precipitation 03/24/2021 09:44 PM 03/24/2021 09:54 PM 0.000 0.000 0.000 0.000 0.000 Not Reported Not Reported
04/08/2021 05:52 PM 57.02 42.80 22.28 63.14 33.98 25.0 Not Reported 6.04 W 4.92 NW 10.96 NW No 0.000 No Precipitation 03/24/2021 09:44 PM 03/24/2021 09:54 PM 0.000 0.000 0.000 0.000 0.000 Not Reported Not Reported
04/08/2021 05:58 PM 56.66 42.80 22.64 62.60 33.98 26.0 Not Reported 7.83 W 4.92 W 11.18 W No 0.000 No Precipitation 03/24/2021 09:44 PM 03/24/2021 09:54 PM 0.000 0.000 0.000 0.000 0.000 Not Reported Not Reported
04/08/2021 06:02 PM 57.20 42.98 22.64 62.06 33.98 25.0 Not Reported 6.04 NW 6.26 NW 11.18 W No 0.000 No Precipitation 03/24/2021 09:44 PM 03/24/2021 09:54 PM 0.000 0.000 0.000 0.000 0.000 Not Reported Not Reported
04/08/2021 06:07 PM 57.56 43.52 24.26 60.98 33.98 27.0 Not Reported 5.37 NW 6.04 NW 9.17 NW No 0.000 No Precipitation 03/24/2021 09:44 PM 03/24/2021 09:54 PM 0.000 0.000 0.000 0.000 0.000 Not Reported Not Reported
04/08/2021 06:12 PM 56.48 42.98 23.90 60.98 33.98 28.0 Not Reported 5.82 NW 4.70 SW 8.95 W No 0.000 No Precipitation 03/24/2021 09:44 PM 03/24/2021 09:54 PM 0.000 0.000 0.000 0.000 0.000 Not Reported Not Reported
04/08/2021 06:17 PM 55.76 42.62 24.26 60.98 33.98 29.0 Not Reported 6.49 NW 9.17 NW 9.17 NW No 0.000 No Precipitation 03/24/2021 09:44 PM 03/24/2021 09:54 PM 0.000 0.000 0.000 0.000 0.000 Not Reported Not Reported
04/08/2021 06:22 PM 54.68 42.26 24.80 60.44 33.98 30.0 Not Reported 2.24 W 4.92 W 9.17 NW No 0.000 No Precipitation 03/24/2021 09:44 PM 03/24/2021 09:54 PM 0.000 0.000 0.000 0.000 0.000 Not Reported Not Reported
04/08/2021 06:27 PM 54.32 42.08 24.44 60.44 33.98 30.0 Not Reported 4.47 W 4.70 N 7.61 W No 0.000 No Precipitation 03/24/2021 09:44 PM 03/24/2021 09:54 PM 0.000 0.000 0.000 0.000 0.000 Not Reported Not Reported
04/08/2021 06:32 PM 54.32 42.08 24.62 60.44 33.98 31.0 Not Reported 4.92 W 7.16 W 7.61 W No 0.000 No Precipitation 03/24/2021 09:44 PM 03/24/2021 09:54 PM 0.000 0.000 0.000 0.000 0.000 Not Reported Not Reported
04/08/2021 06:37 PM 53.78 41.54 24.08 60.44 33.98 30.0 Not Reported 7.38 W 5.82 W 9.84 W No 0.000 No Precipitation 03/24/2021 09:44 PM 03/24/2021 09:54 PM 0.000 0.000 0.000 0.000 0.000 Not Reported Not Reported
04/08/2021 06:42 PM 53.42 41.36 24.08 60.44 33.98 31.0 Not Reported 5.37 W 4.92 W 9.84 W No 0.000 No Precipitation 03/24/2021 09:44 PM 03/24/2021 09:54 PM 0.000 0.000 0.000 0.000 0.000 Not Reported Not Reported
04/08/2021 06:47 PM 53.78 41.54 24.26 60.44 33.98 31.0 Not Reported 6.49 W 4.70 SW 8.05 NW No 0.000 No Precipitation 03/24/2021 09:44 PM 03/24/2021 09:54 PM 0.000 0.000 0.000 0.000 0.000 Not Reported Not Reported
04/08/2021 06:52 PM 53.24 41.36 24.08 60.44 33.98 31.0 Not Reported 6.49 W 6.71 W 10.07 NW No 0.000 No Precipitation 03/24/2021 09:44 PM 03/24/2021 09:54 PM 0.000 0.000 0.000 0.000 0.000 Not Reported Not Reported
04/08/2021 06:57 PM 53.06 41.36 24.80 60.44 33.98 32.0 Not Reported 4.03 W 4.03 W 10.07 NW No 0.000 No Precipitation 03/24/2021 09:44 PM 03/24/2021 09:54 PM 0.000 0.000 0.000 0.000 0.000 Not Reported Not Reported
04/08/2021 07:03 PM 52.52 41.00 24.98 60.44 33.98 34.0 Not Reported 4.70 NW 4.03 NW 6.71 W No 0.000 No Precipitation 03/24/2021 09:44 PM 03/24/2021 09:54 PM 0.000 0.000 0.000 0.000 0.000 Not Reported Not Reported
04/08/2021 07:07 PM 52.16 41.00 24.98 60.44 33.98 34.0 Not Reported 5.59 NW 4.70 W 6.49 W No 0.000 No Precipitation 03/24/2021 09:44 PM 03/24/2021 09:54 PM 0.000 0.000 0.000 0.000 0.000 Not Reported Not Reported
04/08/2021 07:17 PM 51.80 40.82 24.98 60.44 33.98 34.0 Not Reported 5.37 NW 6.49 W 8.50 NW No 0.000 No Precipitation 03/24/2021 09:44 PM 03/24/2021 09:54 PM 0.000 0.000 0.000 0.000 0.000 Not Reported Not Reported
04/08/2021 07:22 PM 51.26 40.64 25.34 60.44 33.98 35.0 Not Reported 4.70 W 3.58 W 6.71 W No 0.000 No Precipitation 03/24/2021 09:44 PM 03/24/2021 09:54 PM 0.000 0.000 0.000 0.000 0.000 Not Reported Not Reported
04/08/2021 07:27 PM 50.36 40.64 26.96 60.44 33.98 39.0 Not Reported 2.46 W 2.46 W 6.26 W No 0.000 No Precipitation 03/24/2021 09:44 PM 03/24/2021 09:54 PM 0.000 0.000 0.000 0.000 0.000 Not Reported Not Reported
04/08/2021 07:32 PM 49.64 40.10 26.96 60.44 33.98 40.0 Not Reported 4.25 W 2.91 W 5.82 W No 0.000 No Precipitation 03/24/2021 09:44 PM 03/24/2021 09:54 PM 0.000 0.000 0.000 0.000 0.000 Not Reported Not Reported
04/08/2021 07:37 PM 49.28 40.10 27.50 60.44 33.98 42.0 Not Reported 4.03 W 3.36 W 5.82 W No 0.000 No Precipitation 03/24/2021 09:44 PM 03/24/2021 09:54 PM 0.000 0.000 0.000 0.000 0.000 Not Reported Not Reported
04/08/2021 07:42 PM 48.56 39.74 27.14 60.44 33.98 42.0 Not Reported 3.58 W 4.25 W 5.14 SW No 0.000 No Precipitation 03/24/2021 09:44 PM 03/24/2021 09:54 PM 0.000 0.000 0.000 0.000 0.000 Not Reported Not Reported
04/08/2021 07:47 PM 47.84 39.38 27.68 60.44 33.98 45.0 Not Reported 2.24 W 3.58 W 5.14 SW No 0.000 No Precipitation 03/24/2021 09:44 PM 03/24/2021 09:54 PM 0.000 0.000 0.000 0.000 0.000 Not Reported Not Reported
04/08/2021 07:52 PM 47.84 39.20 27.14 60.44 33.98 44.0 Not Reported 2.68 W 2.46 SW 4.03 W No 0.000 No Precipitation 03/24/2021 09:44 PM 03/24/2021 09:54 PM 0.000 0.000 0.000 0.000 0.000 Not Reported Not Reported
04/08/2021 07:57 PM 47.66 39.20 27.14 60.44 33.98 44.0 Not Reported 3.36 W 2.01 NW 4.92 W No 0.000 No Precipitation 03/24/2021 09:44 PM 03/24/2021 09:54 PM 0.000 0.000 0.000 0.000 0.000 Not Reported Not Reported
04/08/2021 08:02 PM 48.38 39.38 26.42 60.44 33.98 41.0 Not Reported 3.36 W 1.34 NW 4.92 W No 0.000 No Precipitation 03/24/2021 09:44 PM 03/24/2021 09:54 PM 0.000 0.000 0.000 0.000 0.000 Not Reported Not Reported
04/08/2021 08:07 PM 47.84 39.20 26.78 60.44 33.98 43.0 Not Reported 3.58 W 4.03 W 5.14 SW No 0.000 No Precipitation 03/24/2021 09:44 PM 03/24/2021 09:54 PM 0.000 0.000 0.000 0.000 0.000 Not Reported Not Reported
04/08/2021 08:12 PM 47.30 38.84 26.78 60.44 33.98 44.0 Not Reported 2.24 SW 4.25 W 5.14 SW No 0.000 No Precipitation 03/24/2021 09:44 PM 03/24/2021 09:54 PM 0.000 0.000 0.000 0.000 0.000 Not Reported Not Reported
04/08/2021 08:17 PM 46.58 38.66 27.14 60.44 33.98 45.0 Not Reported 3.36 NW 2.91 W 5.14 SW No 0.000 No Precipitation 03/24/2021 09:44 PM 03/24/2021 09:54 PM 0.000 0.000 0.000 0.000 0.000 Not Reported Not Reported
04/08/2021 08:22 PM 46.58 38.84 28.40 60.44 33.98 48.0 Not Reported 3.58 NW 3.58 SW 7.61 NW No 0.000 No Precipitation 03/24/2021 09:44 PM 03/24/2021 09:54 PM 0.000 0.000 0.000 0.000 0.000 Not Reported Not Reported
04/08/2021 08:27 PM 46.22 38.66 27.86 60.44 33.98 48.0 Not Reported 4.47 NW 6.26 N 7.61 NW No 0.000 No Precipitation 03/24/2021 09:44 PM 03/24/2021 09:54 PM 0.000 0.000 0.000 0.000 0.000 Not Reported Not Reported
04/08/2021 08:32 PM 47.12 38.84 27.14 60.44 33.98 44.0 Not Reported 8.28 NW 10.29 N 10.29 NW No 0.000 No Precipitation 03/24/2021 09:44 PM 03/24/2021 09:54 PM 0.000 0.000 0.000 0.000 0.000 Not Reported Not Reported
04/08/2021 08:37 PM 47.12 38.84 26.96 60.44 33.98 44.0 Not Reported 8.50 NW 12.75 NW 12.75 NW No 0.000 No Precipitation 03/24/2021 09:44 PM 03/24/2021 09:54 PM 0.000 0.000 0.000 0.000 0.000 Not Reported Not Reported
04/08/2021 08:42 PM 47.84 39.20 27.14 60.44 33.98 43.0 Not Reported 9.40 NW 12.08 W 15.21 NW No 0.000 No Precipitation 03/24/2021 09:44 PM 03/24/2021 09:54 PM 0.000 0.000 0.000 0.000 0.000 Not Reported Not Reported
04/08/2021 08:47 PM 47.48 39.02 26.78 60.44 33.98 43.0 Not Reported 11.18 W 12.08 W 15.21 NW No 0.000 No Precipitation 03/24/2021 09:44 PM 03/24/2021 09:54 PM 0.000 0.000 0.000 0.000 0.000 Not Reported Not Reported
04/08/2021 08:52 PM 47.48 39.02 26.78 60.44 33.98 43.0 Not Reported 11.41 NW 11.63 NW 13.65 W No 0.000 No Precipitation 03/24/2021 09:44 PM 03/24/2021 09:54 PM 0.000 0.000 0.000 0.000 0.000 Not Reported Not Reported
04/08/2021 08:57 PM 46.76 38.66 27.14 60.44 33.98 45.0 Not Reported 9.62 W 12.53 W 12.75 W No 0.000 No Precipitation 03/24/2021 09:44 PM 03/24/2021 09:54 PM 0.000 0.000 0.000 0.000 0.000 Not Reported Not Reported
04/08/2021 09:02 PM 46.58 38.66 27.32 60.44 33.98 46.0 Not Reported 9.62 NW 9.17 NW 12.53 W No 0.000 No Precipitation 03/24/2021 09:44 PM 03/24/2021 09:54 PM 0.000 0.000 0.000 0.000 0.000 Not Reported Not Reported
04/08/2021 09:07 PM 46.40 38.48 26.96 60.44 33.98 45.0 Not Reported 10.96 NW 13.20 NW 13.20 NW No 0.000 No Precipitation 03/24/2021 09:44 PM 03/24/2021 09:54 PM 0.000 0.000 0.000 0.000 0.000 Not Reported Not Reported
04/08/2021 09:12 PM 46.40 38.48 26.96 60.44 33.98 46.0 Not Reported 10.29 NW 9.17 W 13.42 NW No 0.000 No Precipitation 03/24/2021 09:44 PM 03/24/2021 09:54 PM 0.000 0.000 0.000 0.000 0.000 Not Reported Not Reported
04/08/2021 09:17 PM 46.04 38.30 27.32 60.44 33.98 47.0 Not Reported 8.95 NW 8.95 NW 13.42 NW No 0.000 No Precipitation 03/24/2021 09:44 PM 03/24/2021 09:54 PM 0.000 0.000 0.000 0.000 0.000 Not Reported Not Reported
04/08/2021 09:22 PM 45.68 38.12 27.14 60.44 33.98 47.0 Not Reported 8.95 NW 8.50 W 10.07 W No 0.000 No Precipitation 03/24/2021 09:44 PM 03/24/2021 09:54 PM 0.000 0.000 0.000 0.000 0.000 Not Reported Not Reported
04/08/2021 09:27 PM 44.96 37.76 27.14 60.44 33.98 49.0 Not Reported 8.05 W 10.07 NW 10.07 W No 0.000 No Precipitation 03/24/2021 09:44 PM 03/24/2021 09:54 PM 0.000 0.000 0.000 0.000 0.000 Not Reported Not Reported
04/08/2021 09:32 PM 44.78 37.58 27.14 60.44 33.98 49.0 Not Reported 7.83 W 9.62 W 10.07 NW No 0.000 No Precipitation 03/24/2021 09:44 PM 03/24/2021 09:54 PM 0.000 0.000 0.000 0.000 0.000 Not Reported Not Reported
04/08/2021 09:37 PM 44.06 37.40 27.32 60.44 33.98 51.0 Not Reported 6.26 W 5.82 NW 9.62 W No 0.000 No Precipitation 03/24/2021 09:44 PM 03/24/2021 09:54 PM 0.000 0.000 0.000 0.000 0.000 Not Reported Not Reported
04/08/2021 09:42 PM 44.42 37.58 27.50 60.44 33.98 50.0 Not Reported 6.93 NW 3.80 NW 9.17 W No 0.000 No Precipitation 03/24/2021 09:44 PM 03/24/2021 09:54 PM 0.000 0.000 0.000 0.000 0.000 Not Reported Not Reported
04/08/2021 09:47 PM 44.96 37.76 27.50 60.44 33.98 49.0 Not Reported 8.05 NW 6.26 N 11.18 NW No 0.000 No Precipitation 03/24/2021 09:44 PM 03/24/2021 09:54 PM 0.000 0.000 0.000 0.000 0.000 Not Reported Not Reported
04/08/2021 09:52 PM 44.06 37.22 26.96 60.44 33.98 50.0 Not Reported 7.16 NW 7.16 NW 11.18 NW No 0.000 No Precipitation 03/24/2021 09:44 PM 03/24/2021 09:54 PM 0.000 0.000 0.000 0.000 0.000 Not Reported Not Reported
04/08/2021 09:57 PM 44.78 37.40 26.78 60.44 33.98 48.0 Not Reported 7.83 W 11.18 NW 12.97 W No 0.000 No Precipitation 03/24/2021 09:44 PM 03/24/2021 09:54 PM 0.000 0.000 0.000 0.000 0.000 Not Reported Not Reported
04/08/2021 10:02 PM 43.88 37.04 27.14 60.44 33.98 51.0 Not Reported 7.16 W 8.28 W 12.97 W No 0.000 No Precipitation 03/24/2021 09:44 PM 03/24/2021 09:54 PM 0.000 0.000 0.000 0.000 0.000 Not Reported Not Reported
04/08/2021 10:07 PM 43.70 37.22 27.68 60.44 33.98 52.0 Not Reported 5.82 W 6.04 W 8.72 W No 0.000 No Precipitation 03/24/2021 09:44 PM 03/24/2021 09:54 PM 0.000 0.000 0.000 0.000 0.000 Not Reported Not Reported
04/08/2021 10:12 PM 44.06 37.04 26.78 60.44 33.98 49.0 Not Reported 8.05 W 9.17 W 9.17 W No 0.000 No Precipitation 03/24/2021 09:44 PM 03/24/2021 09:54 PM 0.000 0.000 0.000 0.000 0.000 Not Reported Not Reported
04/08/2021 10:17 PM 44.06 37.22 26.96 60.44 33.98 50.0 Not Reported 7.16 W 8.28 W 11.63 SW No 0.000 No Precipitation 03/24/2021 09:44 PM 03/24/2021 09:54 PM 0.000 0.000 0.000 0.000 0.000 Not Reported Not Reported
04/08/2021 10:22 PM 43.16 36.86 27.50 60.44 33.98 53.0 Not Reported 6.49 W 4.70 NW 11.63 SW No 0.000 No Precipitation 03/24/2021 09:44 PM 03/24/2021 09:54 PM 0.000 0.000 0.000 0.000 0.000 Not Reported Not Reported
04/08/2021 10:27 PM 42.26 36.32 27.50 60.44 33.98 54.0 Not Reported 5.59 W 6.26 NW 7.83 W No 0.000 No Precipitation 03/24/2021 09:44 PM 03/24/2021 09:54 PM 0.000 0.000 0.000 0.000 0.000 Not Reported Not Reported
04/08/2021 10:32 PM 41.54 35.96 27.68 60.44 33.98 57.0 Not Reported 4.25 W 5.59 W 8.72 S No 0.000 No Precipitation 03/24/2021 09:44 PM 03/24/2021 09:54 PM 0.000 0.000 0.000 0.000 0.000 Not Reported Not Reported
04/08/2021 10:37 PM 41.54 35.78 27.32 60.44 33.98 56.0 Not Reported 4.47 W 5.37 W 8.72 S No 0.000 No Precipitation 03/24/2021 09:44 PM 03/24/2021 09:54 PM 0.000 0.000 0.000 0.000 0.000 Not Reported Not Reported
04/08/2021 10:42 PM 41.90 36.14 27.50 60.44 33.98 55.0 Not Reported 5.14 W 4.25 W 7.38 NW No 0.000 No Precipitation 03/24/2021 09:44 PM 03/24/2021 09:54 PM 0.000 0.000 0.000 0.000 0.000 Not Reported Not Reported
04/08/2021 10:57 PM 42.26 36.14 26.96 60.44 33.98 53.0 Not Reported 6.93 W 6.04 NW 9.62 W No 0.000 No Precipitation 03/24/2021 09:44 PM 03/24/2021 09:54 PM 0.000 0.000 0.000 0.000 0.000 Not Reported Not Reported
04/08/2021 11:02 PM 42.26 36.32 27.14 60.44 33.98 53.0 Not Reported 4.70 NW 4.25 S 9.62 W No 0.000 No Precipitation 03/24/2021 09:44 PM 03/24/2021 09:54 PM 0.000 0.000 0.000 0.000 0.000 Not Reported Not Reported
04/08/2021 11:07 PM 42.26 35.96 26.42 60.44 33.98 52.0 Not Reported 5.82 W 7.16 NW 8.28 NW No 0.000 No Precipitation 03/24/2021 09:44 PM 03/24/2021 09:54 PM 0.000 0.000 0.000 0.000 0.000 Not Reported Not Reported
04/08/2021 11:12 PM 42.26 35.96 26.42 60.44 33.98 52.0 Not Reported 5.59 NW 5.82 W 8.28 NW No 0.000 No Precipitation 03/24/2021 09:44 PM 03/24/2021 09:54 PM 0.000 0.000 0.000 0.000 0.000 Not Reported Not Reported
04/08/2021 11:17 PM 42.08 35.96 26.96 60.44 33.98 54.0 Not Reported 4.92 W 2.68 W 8.50 W No 0.000 No Precipitation 03/24/2021 09:44 PM 03/24/2021 09:54 PM 0.000 0.000 0.000 0.000 0.000 Not Reported Not Reported
04/08/2021 11:23 PM 42.26 35.96 26.06 60.44 33.98 51.0 Not Reported 5.37 W 8.28 W 8.50 W No 0.000 No Precipitation 03/24/2021 09:44 PM 03/24/2021 09:54 PM 0.000 0.000 0.000 0.000 0.000 Not Reported Not Reported
04/08/2021 11:27 PM 42.98 36.32 26.60 60.44 33.98 51.0 Not Reported 7.38 W 5.82 W 8.95 W No 0.000 No Precipitation 03/24/2021 09:44 PM 03/24/2021 09:54 PM 0.000 0.000 0.000 0.000 0.000 Not Reported Not Reported
04/08/2021 11:32 PM 41.72 35.60 26.24 60.44 33.98 53.0 Not Reported 5.14 W 6.49 W 8.95 W No 0.000 No Precipitation 03/24/2021 09:44 PM 03/24/2021 09:54 PM 0.000 0.000 0.000 0.000 0.000 Not Reported Not Reported
04/08/2021 11:37 PM 41.72 35.42 25.88 60.44 33.98 52.0 Not Reported 6.71 W 7.61 W 8.05 W No 0.000 No Precipitation 03/24/2021 09:44 PM 03/24/2021 09:54 PM 0.000 0.000 0.000 0.000 0.000 Not Reported Not Reported
04/08/2021 11:42 PM 41.36 35.60 27.14 60.44 33.98 56.0 Not Reported 4.70 W 4.03 NW 9.40 NW No 0.000 No Precipitation 03/24/2021 09:44 PM 03/24/2021 09:54 PM 0.000 0.000 0.000 0.000 0.000 Not Reported Not Reported
04/08/2021 11:47 PM 40.28 35.06 26.78 60.44 33.98 57.0 Not Reported 4.92 W 5.82 NW 9.40 NW No 0.000 No Precipitation 03/24/2021 09:44 PM 03/24/2021 09:54 PM 0.000 0.000 0.000 0.000 0.000 Not Reported Not Reported
04/08/2021 11:57 PM 40.10 34.70 26.06 60.44 33.98 56.0 Not Reported 5.59 W 7.16 W 10.07 NW No 0.000 No Precipitation 03/24/2021 09:44 PM 03/24/2021 09:54 PM 0.000 0.000 0.000 0.000 0.000 Not Reported Not Reported